sensor_id;sensor_type;location;lat;lon;timestamp;P1;durP1;ratioP1;P2;durP2;ratioP2
5912;SDS011;2982;42.684;23.356;2022-10-18T00:01:17;15.30;;;9.03;;
5912;SDS011;2982;42.684;23.356;2022-10-18T00:03:43;14.80;;;9.43;;
5912;SDS011;2982;42.684;23.356;2022-10-18T00:06:08;22.27;;;10.17;;
5912;SDS011;2982;42.684;23.356;2022-10-18T00:08:35;15.00;;;9.43;;
5912;SDS011;2982;42.684;23.356;2022-10-18T00:11:01;13.87;;;10.03;;
5912;SDS011;2982;42.684;23.356;2022-10-18T00:13:27;14.53;;;10.00;;
5912;SDS011;2982;42.684;23.356;2022-10-18T00:15:53;14.27;;;10.20;;
5912;SDS011;2982;42.684;23.356;2022-10-18T00:18:23;23.17;;;11.17;;
5912;SDS011;2982;42.684;23.356;2022-10-18T00:21:04;22.90;;;11.30;;
5912;SDS011;2982;42.684;23.356;2022-10-18T00:23:31;16.13;;;11.10;;
5912;SDS011;2982;42.684;23.356;2022-10-18T00:26:02;14.97;;;10.43;;
5912;SDS011;2982;42.684;23.356;2022-10-18T00:28:29;18.13;;;11.27;;
5912;SDS011;2982;42.684;23.356;2022-10-18T00:30:55;16.20;;;10.73;;
5912;SDS011;2982;42.684;23.356;2022-10-18T00:33:20;17.83;;;10.67;;
5912;SDS011;2982;42.684;23.356;2022-10-18T00:35:46;19.63;;;11.03;;
5912;SDS011;2982;42.684;23.356;2022-10-18T00:38:11;20.13;;;11.10;;
5912;SDS011;2982;42.684;23.356;2022-10-18T00:40:36;16.67;;;11.27;;
5912;SDS011;2982;42.684;23.356;2022-10-18T00:43:02;14.60;;;9.80;;
5912;SDS011;2982;42.684;23.356;2022-10-18T00:45:28;16.50;;;10.93;;
5912;SDS011;2982;42.684;23.356;2022-10-18T00:47:57;22.93;;;11.90;;
5912;SDS011;2982;42.684;23.356;2022-10-18T00:50:25;22.63;;;10.87;;
5912;SDS011;2982;42.684;23.356;2022-10-18T00:52:53;19.47;;;11.73;;
5912;SDS011;2982;42.684;23.356;2022-10-18T00:55:20;15.80;;;11.37;;
5912;SDS011;2982;42.684;23.356;2022-10-18T00:57:46;22.30;;;11.87;;
5912;SDS011;2982;42.684;23.356;2022-10-18T01:00:12;20.50;;;12.30;;
5912;SDS011;2982;42.684;23.356;2022-10-18T01:02:39;18.73;;;11.03;;
5912;SDS011;2982;42.684;23.356;2022-10-18T01:05:06;17.03;;;10.50;;
5912;SDS011;2982;42.684;23.356;2022-10-18T01:15:33;18.03;;;11.13;;
5912;SDS011;2982;42.684;23.356;2022-10-18T01:18:24;14.27;;;10.20;;
5912;SDS011;2982;42.684;23.356;2022-10-18T01:32:06;17.73;;;11.97;;
5912;SDS011;2982;42.684;23.356;2022-10-18T01:34:45;17.70;;;11.40;;
5912;SDS011;2982;42.684;23.356;2022-10-18T01:37:15;15.60;;;11.40;;
5912;SDS011;2982;42.684;23.356;2022-10-18T01:39:44;14.10;;;10.47;;
5912;SDS011;2982;42.684;23.356;2022-10-18T01:42:11;15.73;;;11.00;;
5912;SDS011;2982;42.684;23.356;2022-10-18T01:44:40;17.93;;;10.77;;
5912;SDS011;2982;42.684;23.356;2022-10-18T01:47:09;14.67;;;10.83;;
5912;SDS011;2982;42.684;23.356;2022-10-18T01:49:36;23.60;;;11.20;;
5912;SDS011;2982;42.684;23.356;2022-10-18T01:52:01;16.30;;;10.43;;
5912;SDS011;2982;42.684;23.356;2022-10-18T01:54:28;28.33;;;10.93;;
5912;SDS011;2982;42.684;23.356;2022-10-18T01:57:06;13.27;;;9.97;;
5912;SDS011;2982;42.684;23.356;2022-10-18T02:02:16;15.83;;;9.60;;
5912;SDS011;2982;42.684;23.356;2022-10-18T02:07:43;15.83;;;9.47;;
5912;SDS011;2982;42.684;23.356;2022-10-18T02:13:19;19.17;;;9.53;;
5912;SDS011;2982;42.684;23.356;2022-10-18T02:15:49;14.93;;;10.00;;
5912;SDS011;2982;42.684;23.356;2022-10-18T02:18:23;11.43;;;8.93;;
5912;SDS011;2982;42.684;23.356;2022-10-18T02:20:53;17.93;;;9.20;;
5912;SDS011;2982;42.684;23.356;2022-10-18T02:23:20;13.30;;;10.07;;
5912;SDS011;2982;42.684;23.356;2022-10-18T02:25:49;10.30;;;8.80;;
5912;SDS011;2982;42.684;23.356;2022-10-18T02:28:15;14.63;;;9.43;;
5912;SDS011;2982;42.684;23.356;2022-10-18T02:30:46;18.30;;;9.70;;
5912;SDS011;2982;42.684;23.356;2022-10-18T02:33:22;14.17;;;8.73;;
5912;SDS011;2982;42.684;23.356;2022-10-18T02:36:12;10.30;;;8.30;;
5912;SDS011;2982;42.684;23.356;2022-10-18T02:38:42;13.73;;;8.93;;
5912;SDS011;2982;42.684;23.356;2022-10-18T02:41:09;14.27;;;8.93;;
5912;SDS011;2982;42.684;23.356;2022-10-18T02:43:35;10.37;;;7.97;;
5912;SDS011;2982;42.684;23.356;2022-10-18T02:46:00;12.33;;;8.10;;
5912;SDS011;2982;42.684;23.356;2022-10-18T02:48:26;28.73;;;10.07;;
5912;SDS011;2982;42.684;23.356;2022-10-18T02:50:51;9.87;;;8.23;;
5912;SDS011;2982;42.684;23.356;2022-10-18T02:53:17;12.53;;;8.67;;
5912;SDS011;2982;42.684;23.356;2022-10-18T02:55:42;15.50;;;8.77;;
5912;SDS011;2982;42.684;23.356;2022-10-18T02:58:07;16.80;;;8.20;;
5912;SDS011;2982;42.684;23.356;2022-10-18T03:00:32;9.07;;;7.97;;
5912;SDS011;2982;42.684;23.356;2022-10-18T03:02:58;15.27;;;8.60;;
5912;SDS011;2982;42.684;23.356;2022-10-18T03:05:23;12.77;;;7.57;;
5912;SDS011;2982;42.684;23.356;2022-10-18T03:07:48;12.20;;;8.57;;
5912;SDS011;2982;42.684;23.356;2022-10-18T03:10:13;16.80;;;8.90;;
5912;SDS011;2982;42.684;23.356;2022-10-18T03:12:39;17.43;;;8.60;;
5912;SDS011;2982;42.684;23.356;2022-10-18T03:15:04;13.40;;;8.50;;
5912;SDS011;2982;42.684;23.356;2022-10-18T03:17:30;12.43;;;8.37;;
5912;SDS011;2982;42.684;23.356;2022-10-18T03:19:55;10.23;;;7.40;;
5912;SDS011;2982;42.684;23.356;2022-10-18T03:22:20;9.37;;;7.93;;
5912;SDS011;2982;42.684;23.356;2022-10-18T03:24:45;12.03;;;7.80;;
5912;SDS011;2982;42.684;23.356;2022-10-18T03:27:11;11.97;;;8.33;;
5912;SDS011;2982;42.684;23.356;2022-10-18T03:29:36;14.27;;;7.40;;
5912;SDS011;2982;42.684;23.356;2022-10-18T03:32:01;8.93;;;7.90;;
5912;SDS011;2982;42.684;23.356;2022-10-18T03:34:26;11.17;;;8.23;;
5912;SDS011;2982;42.684;23.356;2022-10-18T03:36:52;17.47;;;7.67;;
5912;SDS011;2982;42.684;23.356;2022-10-18T03:39:17;13.80;;;8.33;;
5912;SDS011;2982;42.684;23.356;2022-10-18T03:41:42;15.33;;;8.40;;
5912;SDS011;2982;42.684;23.356;2022-10-18T03:44:08;14.63;;;9.07;;
5912;SDS011;2982;42.684;23.356;2022-10-18T03:46:33;11.77;;;9.50;;
5912;SDS011;2982;42.684;23.356;2022-10-18T03:48:58;14.13;;;8.43;;
5912;SDS011;2982;42.684;23.356;2022-10-18T03:51:23;18.00;;;11.77;;
5912;SDS011;2982;42.684;23.356;2022-10-18T03:53:49;13.40;;;8.03;;
5912;SDS011;2982;42.684;23.356;2022-10-18T03:56:14;13.90;;;8.60;;
5912;SDS011;2982;42.684;23.356;2022-10-18T03:58:39;9.77;;;7.27;;
5912;SDS011;2982;42.684;23.356;2022-10-18T04:01:05;12.90;;;8.10;;
5912;SDS011;2982;42.684;23.356;2022-10-18T04:03:30;13.80;;;8.67;;
5912;SDS011;2982;42.684;23.356;2022-10-18T04:05:55;15.20;;;8.60;;
5912;SDS011;2982;42.684;23.356;2022-10-18T04:08:20;13.97;;;8.23;;
5912;SDS011;2982;42.684;23.356;2022-10-18T04:10:46;21.50;;;8.40;;
5912;SDS011;2982;42.684;23.356;2022-10-18T04:13:12;22.50;;;9.13;;
5912;SDS011;2982;42.684;23.356;2022-10-18T04:15:37;10.97;;;8.63;;
5912;SDS011;2982;42.684;23.356;2022-10-18T04:18:02;13.80;;;9.47;;
5912;SDS011;2982;42.684;23.356;2022-10-18T04:20:28;17.87;;;9.77;;
5912;SDS011;2982;42.684;23.356;2022-10-18T04:22:53;16.40;;;9.47;;
5912;SDS011;2982;42.684;23.356;2022-10-18T04:25:19;19.87;;;9.17;;
5912;SDS011;2982;42.684;23.356;2022-10-18T04:27:45;17.90;;;9.47;;
5912;SDS011;2982;42.684;23.356;2022-10-18T04:30:10;15.20;;;9.67;;
5912;SDS011;2982;42.684;23.356;2022-10-18T04:32:36;20.90;;;10.40;;
5912;SDS011;2982;42.684;23.356;2022-10-18T04:35:01;17.33;;;9.93;;
5912;SDS011;2982;42.684;23.356;2022-10-18T04:37:28;12.63;;;9.53;;
5912;SDS011;2982;42.684;23.356;2022-10-18T04:39:53;15.73;;;8.97;;
5912;SDS011;2982;42.684;23.356;2022-10-18T04:42:18;16.13;;;9.33;;
5912;SDS011;2982;42.684;23.356;2022-10-18T04:44:44;12.07;;;9.27;;
5912;SDS011;2982;42.684;23.356;2022-10-18T04:47:09;23.27;;;10.63;;
5912;SDS011;2982;42.684;23.356;2022-10-18T04:49:35;17.80;;;9.57;;
5912;SDS011;2982;42.684;23.356;2022-10-18T04:52:00;12.10;;;9.17;;
5912;SDS011;2982;42.684;23.356;2022-10-18T04:54:25;20.97;;;10.00;;
5912;SDS011;2982;42.684;23.356;2022-10-18T04:56:50;11.30;;;9.43;;
5912;SDS011;2982;42.684;23.356;2022-10-18T04:59:16;19.37;;;10.30;;
5912;SDS011;2982;42.684;23.356;2022-10-18T05:01:41;22.30;;;11.07;;
5912;SDS011;2982;42.684;23.356;2022-10-18T05:04:06;27.90;;;10.17;;
5912;SDS011;2982;42.684;23.356;2022-10-18T05:06:32;25.70;;;10.50;;
5912;SDS011;2982;42.684;23.356;2022-10-18T05:08:58;20.57;;;10.93;;
5912;SDS011;2982;42.684;23.356;2022-10-18T05:11:23;29.57;;;12.50;;
5912;SDS011;2982;42.684;23.356;2022-10-18T05:13:48;24.70;;;12.77;;
5912;SDS011;2982;42.684;23.356;2022-10-18T05:16:14;43.13;;;12.67;;
5912;SDS011;2982;42.684;23.356;2022-10-18T05:18:39;21.63;;;11.97;;
5912;SDS011;2982;42.684;23.356;2022-10-18T05:21:04;21.13;;;12.23;;
5912;SDS011;2982;42.684;23.356;2022-10-18T05:23:30;18.77;;;13.77;;
5912;SDS011;2982;42.684;23.356;2022-10-18T05:25:59;21.20;;;13.27;;
5912;SDS011;2982;42.684;23.356;2022-10-18T05:28:25;28.97;;;14.07;;
5912;SDS011;2982;42.684;23.356;2022-10-18T05:30:50;22.10;;;12.73;;
5912;SDS011;2982;42.684;23.356;2022-10-18T05:33:16;20.50;;;12.70;;
5912;SDS011;2982;42.684;23.356;2022-10-18T05:35:41;20.80;;;12.60;;
5912;SDS011;2982;42.684;23.356;2022-10-18T05:38:06;20.73;;;12.53;;
5912;SDS011;2982;42.684;23.356;2022-10-18T05:40:32;21.97;;;13.23;;
5912;SDS011;2982;42.684;23.356;2022-10-18T05:42:58;19.60;;;12.40;;
5912;SDS011;2982;42.684;23.356;2022-10-18T05:45:23;21.10;;;12.53;;
5912;SDS011;2982;42.684;23.356;2022-10-18T05:47:48;19.13;;;12.57;;
5912;SDS011;2982;42.684;23.356;2022-10-18T05:50:14;20.80;;;12.43;;
5912;SDS011;2982;42.684;23.356;2022-10-18T05:52:39;21.27;;;12.87;;
5912;SDS011;2982;42.684;23.356;2022-10-18T05:55:04;21.70;;;12.70;;
5912;SDS011;2982;42.684;23.356;2022-10-18T05:57:30;14.17;;;12.23;;
5912;SDS011;2982;42.684;23.356;2022-10-18T05:59:55;23.23;;;13.17;;
5912;SDS011;2982;42.684;23.356;2022-10-18T06:02:20;19.30;;;13.43;;
5912;SDS011;2982;42.684;23.356;2022-10-18T06:04:46;29.50;;;13.47;;
5912;SDS011;2982;42.684;23.356;2022-10-18T06:07:11;27.10;;;13.53;;
5912;SDS011;2982;42.684;23.356;2022-10-18T06:09:37;18.93;;;12.93;;
5912;SDS011;2982;42.684;23.356;2022-10-18T06:12:02;26.37;;;13.87;;
5912;SDS011;2982;42.684;23.356;2022-10-18T06:14:29;22.40;;;13.63;;
5912;SDS011;2982;42.684;23.356;2022-10-18T06:16:54;21.97;;;13.80;;
5912;SDS011;2982;42.684;23.356;2022-10-18T06:19:19;21.47;;;13.10;;
5912;SDS011;2982;42.684;23.356;2022-10-18T06:21:45;16.90;;;12.63;;
5912;SDS011;2982;42.684;23.356;2022-10-18T06:24:10;23.23;;;12.57;;
5912;SDS011;2982;42.684;23.356;2022-10-18T06:26:35;18.80;;;13.33;;
5912;SDS011;2982;42.684;23.356;2022-10-18T06:29:00;17.70;;;12.67;;
5912;SDS011;2982;42.684;23.356;2022-10-18T06:31:26;22.27;;;14.60;;
5912;SDS011;2982;42.684;23.356;2022-10-18T06:33:51;20.90;;;14.87;;
5912;SDS011;2982;42.684;23.356;2022-10-18T06:36:17;27.53;;;15.37;;
5912;SDS011;2982;42.684;23.356;2022-10-18T06:38:44;22.00;;;14.33;;
5912;SDS011;2982;42.684;23.356;2022-10-18T06:41:09;20.90;;;14.27;;
5912;SDS011;2982;42.684;23.356;2022-10-18T06:43:35;24.40;;;14.37;;
5912;SDS011;2982;42.684;23.356;2022-10-18T06:46:01;27.33;;;11.37;;
5912;SDS011;2982;42.684;23.356;2022-10-18T06:48:29;17.57;;;11.80;;
5912;SDS011;2982;42.684;23.356;2022-10-18T06:50:55;24.07;;;11.07;;
5912;SDS011;2982;42.684;23.356;2022-10-18T06:53:23;19.63;;;10.27;;
5912;SDS011;2982;42.684;23.356;2022-10-18T06:55:49;15.80;;;9.13;;
5912;SDS011;2982;42.684;23.356;2022-10-18T06:58:15;23.90;;;11.10;;
5912;SDS011;2982;42.684;23.356;2022-10-18T07:00:40;11.03;;;9.47;;
5912;SDS011;2982;42.684;23.356;2022-10-18T07:03:05;29.53;;;9.63;;
5912;SDS011;2982;42.684;23.356;2022-10-18T07:05:31;11.80;;;8.57;;
5912;SDS011;2982;42.684;23.356;2022-10-18T07:07:56;17.80;;;10.40;;
5912;SDS011;2982;42.684;23.356;2022-10-18T07:10:22;13.60;;;11.20;;
5912;SDS011;2982;42.684;23.356;2022-10-18T07:12:48;12.90;;;9.93;;
5912;SDS011;2982;42.684;23.356;2022-10-18T07:15:13;23.20;;;10.83;;
5912;SDS011;2982;42.684;23.356;2022-10-18T07:17:39;20.57;;;12.87;;
5912;SDS011;2982;42.684;23.356;2022-10-18T07:20:04;17.63;;;12.07;;
5912;SDS011;2982;42.684;23.356;2022-10-18T07:22:30;11.30;;;9.13;;
5912;SDS011;2982;42.684;23.356;2022-10-18T07:24:55;18.57;;;8.57;;
5912;SDS011;2982;42.684;23.356;2022-10-18T07:27:20;11.63;;;7.87;;
5912;SDS011;2982;42.684;23.356;2022-10-18T07:29:45;7.57;;;6.87;;
5912;SDS011;2982;42.684;23.356;2022-10-18T07:32:11;7.67;;;7.07;;
5912;SDS011;2982;42.684;23.356;2022-10-18T07:34:36;9.43;;;7.67;;
5912;SDS011;2982;42.684;23.356;2022-10-18T07:37:01;17.00;;;8.13;;
5912;SDS011;2982;42.684;23.356;2022-10-18T07:39:27;12.17;;;8.07;;
5912;SDS011;2982;42.684;23.356;2022-10-18T07:41:52;9.37;;;8.30;;
5912;SDS011;2982;42.684;23.356;2022-10-18T07:44:17;13.53;;;8.90;;
5912;SDS011;2982;42.684;23.356;2022-10-18T07:46:42;15.88;;;8.60;;
5912;SDS011;2982;42.684;23.356;2022-10-18T07:49:08;17.37;;;11.70;;
5912;SDS011;2982;42.684;23.356;2022-10-18T07:51:33;23.20;;;13.18;;
5912;SDS011;2982;42.684;23.356;2022-10-18T07:53:58;17.85;;;12.27;;
5912;SDS011;2982;42.684;23.356;2022-10-18T07:56:24;24.40;;;12.30;;
5912;SDS011;2982;42.684;23.356;2022-10-18T07:58:50;28.05;;;13.18;;
5912;SDS011;2982;42.684;23.356;2022-10-18T08:01:17;20.85;;;13.23;;
5912;SDS011;2982;42.684;23.356;2022-10-18T08:03:43;22.45;;;13.00;;
5912;SDS011;2982;42.684;23.356;2022-10-18T08:06:09;20.08;;;11.82;;
5912;SDS011;2982;42.684;23.356;2022-10-18T08:08:37;23.10;;;11.32;;
5912;SDS011;2982;42.684;23.356;2022-10-18T08:11:04;24.95;;;12.63;;
5912;SDS011;2982;42.684;23.356;2022-10-18T08:13:31;23.60;;;13.30;;
5912;SDS011;2982;42.684;23.356;2022-10-18T08:16:03;29.00;;;14.05;;
5912;SDS011;2982;42.684;23.356;2022-10-18T08:18:31;20.27;;;12.63;;
5912;SDS011;2982;42.684;23.356;2022-10-18T08:20:58;16.83;;;11.85;;
5912;SDS011;2982;42.684;23.356;2022-10-18T08:23:24;16.90;;;10.10;;
5912;SDS011;2982;42.684;23.356;2022-10-18T08:25:49;11.20;;;9.07;;
5912;SDS011;2982;42.684;23.356;2022-10-18T08:28:14;9.70;;;8.48;;
5912;SDS011;2982;42.684;23.356;2022-10-18T08:30:40;15.10;;;9.75;;
5912;SDS011;2982;42.684;23.356;2022-10-18T08:33:05;13.32;;;9.32;;
5912;SDS011;2982;42.684;23.356;2022-10-18T08:35:30;11.68;;;8.10;;
5912;SDS011;2982;42.684;23.356;2022-10-18T08:37:55;11.57;;;8.52;;
5912;SDS011;2982;42.684;23.356;2022-10-18T08:40:21;14.15;;;8.20;;
5912;SDS011;2982;42.684;23.356;2022-10-18T08:45:30;11.23;;;8.32;;
5912;SDS011;2982;42.684;23.356;2022-10-18T08:48:01;9.55;;;8.25;;
5912;SDS011;2982;42.684;23.356;2022-10-18T08:50:32;12.45;;;7.30;;
5912;SDS011;2982;42.684;23.356;2022-10-18T08:53:02;14.30;;;9.50;;
5912;SDS011;2982;42.684;23.356;2022-10-18T08:55:45;10.48;;;9.07;;
5912;SDS011;2982;42.684;23.356;2022-10-18T08:58:25;11.10;;;9.27;;
5912;SDS011;2982;42.684;23.356;2022-10-18T09:10:18;14.43;;;8.93;;
5912;SDS011;2982;42.684;23.356;2022-10-18T09:13:06;13.43;;;8.60;;
5912;SDS011;2982;42.684;23.356;2022-10-18T09:15:59;11.68;;;7.88;;
5912;SDS011;2982;42.684;23.356;2022-10-18T09:21:19;17.88;;;8.07;;
5912;SDS011;2982;42.684;23.356;2022-10-18T09:23:49;16.98;;;9.73;;
5912;SDS011;2982;42.684;23.356;2022-10-18T09:26:26;10.45;;;7.40;;
5912;SDS011;2982;42.684;23.356;2022-10-18T09:29:35;13.02;;;7.20;;
5912;SDS011;2982;42.684;23.356;2022-10-18T09:31:55;12.95;;;6.72;;
5912;SDS011;2982;42.684;23.356;2022-10-18T09:37:20;7.45;;;6.15;;
5912;SDS011;2982;42.684;23.356;2022-10-18T09:39:49;11.27;;;6.95;;
5912;SDS011;2982;42.684;23.356;2022-10-18T09:42:24;8.50;;;6.47;;
5912;SDS011;2982;42.684;23.356;2022-10-18T09:45:45;15.98;;;6.65;;
5912;SDS011;2982;42.684;23.356;2022-10-18T09:48:03;14.98;;;5.00;;
5912;SDS011;2982;42.684;23.356;2022-10-18T09:56:09;4.70;;;4.25;;
5912;SDS011;2982;42.684;23.356;2022-10-18T09:58:42;4.32;;;3.42;;
5912;SDS011;2982;42.684;23.356;2022-10-18T10:01:10;12.50;;;4.22;;
5912;SDS011;2982;42.684;23.356;2022-10-18T10:03:38;6.15;;;3.33;;
5912;SDS011;2982;42.684;23.356;2022-10-18T10:08:35;10.07;;;3.22;;
5912;SDS011;2982;42.684;23.356;2022-10-18T10:11:00;3.70;;;2.88;;
5912;SDS011;2982;42.684;23.356;2022-10-18T10:13:25;4.88;;;3.85;;
5912;SDS011;2982;42.684;23.356;2022-10-18T10:20:55;7.35;;;2.25;;
5912;SDS011;2982;42.684;23.356;2022-10-18T10:23:34;5.88;;;2.10;;
5912;SDS011;2982;42.684;23.356;2022-10-18T10:26:21;3.10;;;2.60;;
5912;SDS011;2982;42.684;23.356;2022-10-18T10:28:48;8.65;;;2.47;;
5912;SDS011;2982;42.684;23.356;2022-10-18T10:33:57;3.78;;;2.05;;
5912;SDS011;2982;42.684;23.356;2022-10-18T10:36:24;4.88;;;2.35;;
5912;SDS011;2982;42.684;23.356;2022-10-18T10:41:30;4.22;;;2.20;;
5912;SDS011;2982;42.684;23.356;2022-10-18T10:43:56;4.97;;;1.75;;
5912;SDS011;2982;42.684;23.356;2022-10-18T10:46:21;2.22;;;2.03;;
5912;SDS011;2982;42.684;23.356;2022-10-18T10:51:28;4.20;;;2.00;;
5912;SDS011;2982;42.684;23.356;2022-10-18T10:59:25;6.10;;;1.90;;
5912;SDS011;2982;42.684;23.356;2022-10-18T11:04:37;3.53;;;2.05;;
5912;SDS011;2982;42.684;23.356;2022-10-18T11:07:04;2.15;;;1.95;;
5912;SDS011;2982;42.684;23.356;2022-10-18T11:12:37;2.35;;;2.15;;
5912;SDS011;2982;42.684;23.356;2022-10-18T11:20:31;4.07;;;2.38;;
5912;SDS011;2982;42.684;23.356;2022-10-18T11:23:02;5.50;;;2.63;;
5912;SDS011;2982;42.684;23.356;2022-10-18T11:25:33;12.40;;;2.08;;
5912;SDS011;2982;42.684;23.356;2022-10-18T11:34:07;3.63;;;1.40;;
5912;SDS011;2982;42.684;23.356;2022-10-18T11:36:35;2.85;;;1.35;;
5912;SDS011;2982;42.684;23.356;2022-10-18T11:39:21;3.10;;;1.30;;
5912;SDS011;2982;42.684;23.356;2022-10-18T11:41:52;1.40;;;1.25;;
5912;SDS011;2982;42.684;23.356;2022-10-18T12:06:23;1.00;;;1.00;;
5912;SDS011;2982;42.684;23.356;2022-10-18T12:09:00;7.78;;;5.00;;
5912;SDS011;2982;42.684;23.356;2022-10-18T12:11:29;3.13;;;1.02;;
5912;SDS011;2982;42.684;23.356;2022-10-18T12:14:10;1.67;;;1.58;;
5912;SDS011;2982;42.684;23.356;2022-10-18T12:16:45;2.15;;;0.75;;
5912;SDS011;2982;42.684;23.356;2022-10-18T12:19:13;1.08;;;0.95;;
5912;SDS011;2982;42.684;23.356;2022-10-18T12:21:44;2.10;;;1.00;;
5912;SDS011;2982;42.684;23.356;2022-10-18T12:24:10;1.23;;;1.00;;
5912;SDS011;2982;42.684;23.356;2022-10-18T12:26:38;1.20;;;1.08;;
5912;SDS011;2982;42.684;23.356;2022-10-18T12:31:53;0.90;;;0.75;;
5912;SDS011;2982;42.684;23.356;2022-10-18T12:34:28;0.60;;;0.60;;
5912;SDS011;2982;42.684;23.356;2022-10-18T12:37:05;0.98;;;0.60;;
5912;SDS011;2982;42.684;23.356;2022-10-18T12:42:24;0.80;;;0.77;;
5912;SDS011;2982;42.684;23.356;2022-10-18T12:47:47;2.58;;;0.80;;
5912;SDS011;2982;42.684;23.356;2022-10-18T12:50:32;0.77;;;0.75;;
5912;SDS011;2982;42.684;23.356;2022-10-18T12:53:05;2.33;;;1.88;;
5912;SDS011;2982;42.684;23.356;2022-10-18T12:55:37;0.98;;;0.77;;
5912;SDS011;2982;42.684;23.356;2022-10-18T13:11:23;1.73;;;0.75;;
5912;SDS011;2982;42.684;23.356;2022-10-18T13:16:27;2.42;;;1.30;;
5912;SDS011;2982;42.684;23.356;2022-10-18T13:19:20;1.23;;;1.13;;
5912;SDS011;2982;42.684;23.356;2022-10-18T13:21:54;6.53;;;1.38;;
5912;SDS011;2982;42.684;23.356;2022-10-18T13:24:37;3.22;;;1.00;;
5912;SDS011;2982;42.684;23.356;2022-10-18T13:34:55;2.17;;;0.65;;
5912;SDS011;2982;42.684;23.356;2022-10-18T13:37:23;0.85;;;0.70;;
5912;SDS011;2982;42.684;23.356;2022-10-18T13:39:50;3.90;;;0.80;;
5912;SDS011;2982;42.684;23.356;2022-10-18T13:42:53;2.95;;;0.90;;
5912;SDS011;2982;42.684;23.356;2022-10-18T13:47:56;1.20;;;0.70;;
5912;SDS011;2982;42.684;23.356;2022-10-18T13:50:41;3.50;;;0.88;;
5912;SDS011;2982;42.684;23.356;2022-10-18T13:53:44;0.70;;;0.70;;
5912;SDS011;2982;42.684;23.356;2022-10-18T13:56:18;3.85;;;0.90;;
5912;SDS011;2982;42.684;23.356;2022-10-18T14:07:46;0.80;;;0.60;;
5912;SDS011;2982;42.684;23.356;2022-10-18T14:10:25;0.95;;;0.90;;
5912;SDS011;2982;42.684;23.356;2022-10-18T14:12:59;1.45;;;1.10;;
5912;SDS011;2982;42.684;23.356;2022-10-18T14:15:30;9.30;;;1.27;;
5912;SDS011;2982;42.684;23.356;2022-10-18T14:18:01;1.55;;;1.05;;
5912;SDS011;2982;42.684;23.356;2022-10-18T14:20:34;2.85;;;0.88;;
5912;SDS011;2982;42.684;23.356;2022-10-18T14:23:16;1.10;;;1.00;;
5912;SDS011;2982;42.684;23.356;2022-10-18T14:25:43;1.55;;;0.93;;
5912;SDS011;2982;42.684;23.356;2022-10-18T14:28:16;3.53;;;1.10;;
5912;SDS011;2982;42.684;23.356;2022-10-18T14:30:54;2.80;;;1.33;;
5912;SDS011;2982;42.684;23.356;2022-10-18T14:41:18;3.28;;;1.13;;
5912;SDS011;2982;42.684;23.356;2022-10-18T14:43:49;8.07;;;2.03;;
5912;SDS011;2982;42.684;23.356;2022-10-18T14:48:42;2.67;;;1.48;;
5912;SDS011;2982;42.684;23.356;2022-10-18T14:51:18;4.32;;;1.55;;
5912;SDS011;2982;42.684;23.356;2022-10-18T14:53:44;1.35;;;1.15;;
5912;SDS011;2982;42.684;23.356;2022-10-18T14:56:30;1.45;;;1.35;;
5912;SDS011;2982;42.684;23.356;2022-10-18T14:59:01;7.07;;;1.42;;
5912;SDS011;2982;42.684;23.356;2022-10-18T15:01:29;1.80;;;1.58;;
5912;SDS011;2982;42.684;23.356;2022-10-18T15:04:06;1.40;;;0.90;;
5912;SDS011;2982;42.684;23.356;2022-10-18T15:06:35;2.15;;;0.80;;
5912;SDS011;2982;42.684;23.356;2022-10-18T15:09:06;8.80;;;1.20;;
5912;SDS011;2982;42.684;23.356;2022-10-18T15:11:33;3.47;;;1.00;;
5912;SDS011;2982;42.684;23.356;2022-10-18T15:14:00;1.52;;;1.23;;
5912;SDS011;2982;42.684;23.356;2022-10-18T15:16:29;4.40;;;1.48;;
5912;SDS011;2982;42.684;23.356;2022-10-18T15:21:27;7.75;;;1.40;;
5912;SDS011;2982;42.684;23.356;2022-10-18T15:23:53;2.25;;;1.02;;
5912;SDS011;2982;42.684;23.356;2022-10-18T15:26:26;10.02;;;1.35;;
5912;SDS011;2982;42.684;23.356;2022-10-18T15:28:54;10.55;;;2.67;;
5912;SDS011;2982;42.684;23.356;2022-10-18T15:31:26;5.75;;;3.05;;
5912;SDS011;2982;42.684;23.356;2022-10-18T15:34:09;7.18;;;3.17;;
5912;SDS011;2982;42.684;23.356;2022-10-18T15:36:42;2.92;;;2.47;;
5912;SDS011;2982;42.684;23.356;2022-10-18T15:39:18;7.47;;;2.92;;
5912;SDS011;2982;42.684;23.356;2022-10-18T15:41:51;6.55;;;3.00;;
5912;SDS011;2982;42.684;23.356;2022-10-18T15:54:59;9.98;;;3.28;;
5912;SDS011;2982;42.684;23.356;2022-10-18T15:57:25;13.27;;;3.28;;
5912;SDS011;2982;42.684;23.356;2022-10-18T15:59:54;10.20;;;3.72;;
5912;SDS011;2982;42.684;23.356;2022-10-18T16:02:23;10.90;;;3.80;;
5912;SDS011;2982;42.684;23.356;2022-10-18T16:04:48;8.45;;;3.38;;
5912;SDS011;2982;42.684;23.356;2022-10-18T16:07:14;6.82;;;3.00;;
5912;SDS011;2982;42.684;23.356;2022-10-18T16:09:39;10.65;;;3.58;;
5912;SDS011;2982;42.684;23.356;2022-10-18T16:12:04;11.40;;;3.28;;
5912;SDS011;2982;42.684;23.356;2022-10-18T16:14:36;8.55;;;3.97;;
5912;SDS011;2982;42.684;23.356;2022-10-18T16:17:03;7.72;;;4.07;;
5912;SDS011;2982;42.684;23.356;2022-10-18T16:19:31;8.73;;;4.82;;
5912;SDS011;2982;42.684;23.356;2022-10-18T16:21:57;13.23;;;4.03;;
5912;SDS011;2982;42.684;23.356;2022-10-18T16:24:24;12.98;;;5.20;;
5912;SDS011;2982;42.684;23.356;2022-10-18T16:26:50;16.48;;;4.80;;
5912;SDS011;2982;42.684;23.356;2022-10-18T16:29:17;16.83;;;5.45;;
5912;SDS011;2982;42.684;23.356;2022-10-18T16:31:44;16.83;;;4.32;;
5912;SDS011;2982;42.684;23.356;2022-10-18T16:34:09;7.43;;;3.20;;
5912;SDS011;2982;42.684;23.356;2022-10-18T16:36:34;12.40;;;3.53;;
5912;SDS011;2982;42.684;23.356;2022-10-18T16:39:00;5.80;;;2.90;;
5912;SDS011;2982;42.684;23.356;2022-10-18T16:41:28;6.95;;;2.78;;
5912;SDS011;2982;42.684;23.356;2022-10-18T16:43:53;10.20;;;3.65;;
5912;SDS011;2982;42.684;23.356;2022-10-18T16:46:20;10.90;;;3.30;;
5912;SDS011;2982;42.684;23.356;2022-10-18T16:48:47;7.55;;;2.92;;
5912;SDS011;2982;42.684;23.356;2022-10-18T16:51:14;6.32;;;3.47;;
5912;SDS011;2982;42.684;23.356;2022-10-18T16:53:39;5.90;;;3.75;;
5912;SDS011;2982;42.684;23.356;2022-10-18T16:56:09;5.10;;;3.22;;
5912;SDS011;2982;42.684;23.356;2022-10-18T16:58:38;9.80;;;3.30;;
5912;SDS011;2982;42.684;23.356;2022-10-18T17:01:03;10.07;;;3.72;;
5912;SDS011;2982;42.684;23.356;2022-10-18T17:03:28;12.25;;;4.05;;
5912;SDS011;2982;42.684;23.356;2022-10-18T17:05:54;10.25;;;3.72;;
5912;SDS011;2982;42.684;23.356;2022-10-18T17:08:20;4.75;;;3.15;;
5912;SDS011;2982;42.684;23.356;2022-10-18T17:10:48;8.65;;;3.47;;
5912;SDS011;2982;42.684;23.356;2022-10-18T17:13:15;7.65;;;2.80;;
5912;SDS011;2982;42.684;23.356;2022-10-18T17:15:40;8.82;;;3.35;;
5912;SDS011;2982;42.684;23.356;2022-10-18T17:18:09;6.72;;;2.88;;
5912;SDS011;2982;42.684;23.356;2022-10-18T17:20:36;4.03;;;2.72;;
5912;SDS011;2982;42.684;23.356;2022-10-18T17:23:01;3.20;;;2.88;;
5912;SDS011;2982;42.684;23.356;2022-10-18T17:25:27;3.83;;;2.70;;
5912;SDS011;2982;42.684;23.356;2022-10-18T17:27:52;4.30;;;2.90;;
5912;SDS011;2982;42.684;23.356;2022-10-18T17:30:17;7.00;;;2.78;;
5912;SDS011;2982;42.684;23.356;2022-10-18T17:32:42;11.93;;;3.17;;
5912;SDS011;2982;42.684;23.356;2022-10-18T17:35:08;3.45;;;3.15;;
5912;SDS011;2982;42.684;23.356;2022-10-18T17:37:33;11.25;;;4.35;;
5912;SDS011;2982;42.684;23.356;2022-10-18T17:39:59;5.32;;;3.97;;
5912;SDS011;2982;42.684;23.356;2022-10-18T17:42:24;15.98;;;5.15;;
5912;SDS011;2982;42.684;23.356;2022-10-18T17:44:49;9.10;;;4.53;;
5912;SDS011;2982;42.684;23.356;2022-10-18T17:47:14;17.23;;;5.13;;
5912;SDS011;2982;42.684;23.356;2022-10-18T17:49:40;14.50;;;5.43;;
5912;SDS011;2982;42.684;23.356;2022-10-18T17:52:05;12.13;;;4.80;;
5912;SDS011;2982;42.684;23.356;2022-10-18T17:54:30;8.52;;;5.30;;